sensor_id;sensor_type;location;lat;lon;timestamp;P1;P2;P0
23240;PMS7003;11789;53.482;9.862;2022-07-21T00:00:54;35.00;33.50;23.25
23240;PMS7003;11789;53.482;9.862;2022-07-21T00:03:19;39.25;33.75;22.50
23240;PMS7003;11789;53.482;9.862;2022-07-21T00:05:45;33.75;32.00;22.50
23240;PMS7003;11789;53.482;9.862;2022-07-21T00:08:10;40.25;34.25;23.25
23240;PMS7003;11789;53.482;9.862;2022-07-21T00:10:38;40.00;35.00;22.75
23240;PMS7003;11789;53.482;9.862;2022-07-21T00:13:03;35.00;32.75;21.25
23240;PMS7003;11789;53.482;9.862;2022-07-21T00:15:29;45.50;37.00;23.25
23240;PMS7003;11789;53.482;9.862;2022-07-21T00:17:55;35.25;32.75;22.50
23240;PMS7003;11789;53.482;9.862;2022-07-21T00:20:21;38.75;33.50;23.00
23240;PMS7003;11789;53.482;9.862;2022-07-21T00:22:47;36.25;31.25;20.75
23240;PMS7003;11789;53.482;9.862;2022-07-21T00:25:13;36.00;33.00;22.25
23240;PMS7003;11789;53.482;9.862;2022-07-21T00:27:41;39.75;35.75;23.00
23240;PMS7003;11789;53.482;9.862;2022-07-21T00:30:07;43.25;35.25;22.50
23240;PMS7003;11789;53.482;9.862;2022-07-21T00:32:34;40.50;34.25;23.25
23240;PMS7003;11789;53.482;9.862;2022-07-21T00:35:00;37.00;31.25;20.25
23240;PMS7003;11789;53.482;9.862;2022-07-21T00:37:26;37.50;33.75;21.00
23240;PMS7003;11789;53.482;9.862;2022-07-21T00:39:52;35.00;33.25;22.25
23240;PMS7003;11789;53.482;9.862;2022-07-21T00:42:22;43.75;35.50;23.50
23240;PMS7003;11789;53.482;9.862;2022-07-21T00:44:49;37.50;32.50;22.25
23240;PMS7003;11789;53.482;9.862;2022-07-21T00:47:15;39.25;34.75;23.00
23240;PMS7003;11789;53.482;9.862;2022-07-21T00:49:43;40.75;33.50;23.50
23240;PMS7003;11789;53.482;9.862;2022-07-21T00:52:09;41.75;33.50;23.25
23240;PMS7003;11789;53.482;9.862;2022-07-21T00:54:35;39.50;33.75;23.25
23240;PMS7003;11789;53.482;9.862;2022-07-21T00:57:01;38.25;32.75;22.25
23240;PMS7003;11789;53.482;9.862;2022-07-21T00:59:27;36.50;33.50;22.25
23240;PMS7003;11789;53.482;9.862;2022-07-21T01:01:54;34.50;33.25;22.75
23240;PMS7003;11789;53.482;9.862;2022-07-21T01:04:19;42.00;34.50;22.75
23240;PMS7003;11789;53.482;9.862;2022-07-21T01:06:45;34.50;32.00;22.25
23240;PMS7003;11789;53.482;9.862;2022-07-21T01:09:10;40.75;34.50;23.75
23240;PMS7003;11789;53.482;9.862;2022-07-21T01:11:36;35.25;32.25;23.00
23240;PMS7003;11789;53.482;9.862;2022-07-21T01:14:02;42.00;34.25;22.25
23240;PMS7003;11789;53.482;9.862;2022-07-21T01:16:27;42.00;33.25;23.00
23240;PMS7003;11789;53.482;9.862;2022-07-21T01:18:53;36.00;31.75;22.50
23240;PMS7003;11789;53.482;9.862;2022-07-21T01:24:17;35.00;32.00;22.50
23240;PMS7003;11789;53.482;9.862;2022-07-21T01:26:44;38.00;35.00;22.75
23240;PMS7003;11789;53.482;9.862;2022-07-21T01:29:11;35.50;31.25;21.75
23240;PMS7003;11789;53.482;9.862;2022-07-21T01:31:37;33.75;30.25;21.00
23240;PMS7003;11789;53.482;9.862;2022-07-21T01:34:04;34.75;31.50;21.75
23240;PMS7003;11789;53.482;9.862;2022-07-21T01:36:30;37.00;31.75;21.25
23240;PMS7003;11789;53.482;9.862;2022-07-21T01:38:56;35.50;31.75;21.50
23240;PMS7003;11789;53.482;9.862;2022-07-21T01:41:40;38.75;32.75;23.25
23240;PMS7003;11789;53.482;9.862;2022-07-21T01:44:06;38.75;34.75;23.00
23240;PMS7003;11789;53.482;9.862;2022-07-21T01:46:38;39.50;33.75;24.25
23240;PMS7003;11789;53.482;9.862;2022-07-21T01:49:05;38.75;33.25;22.50
23240;PMS7003;11789;53.482;9.862;2022-07-21T01:51:32;34.50;31.25;21.50
23240;PMS7003;11789;53.482;9.862;2022-07-21T01:53:57;33.50;32.25;22.25
23240;PMS7003;11789;53.482;9.862;2022-07-21T01:56:24;39.75;34.00;21.50
23240;PMS7003;11789;53.482;9.862;2022-07-21T01:58:51;39.25;33.50;21.75
23240;PMS7003;11789;53.482;9.862;2022-07-21T02:01:19;40.00;34.00;21.25
23240;PMS7003;11789;53.482;9.862;2022-07-21T02:03:46;35.50;31.50;22.25
23240;PMS7003;11789;53.482;9.862;2022-07-21T02:06:13;31.50;31.25;22.00
23240;PMS7003;11789;53.482;9.862;2022-07-21T02:08:39;35.50;30.00;21.50
23240;PMS7003;11789;53.482;9.862;2022-07-21T02:11:07;32.50;30.25;20.25
23240;PMS7003;11789;53.482;9.862;2022-07-21T02:13:34;34.75;32.50;22.25
23240;PMS7003;11789;53.482;9.862;2022-07-21T02:15:59;33.25;30.50;20.75
23240;PMS7003;11789;53.482;9.862;2022-07-21T02:18:25;34.50;30.25;20.25
23240;PMS7003;11789;53.482;9.862;2022-07-21T02:20:50;33.00;29.50;20.75
23240;PMS7003;11789;53.482;9.862;2022-07-21T02:23:17;29.00;29.00;20.25
23240;PMS7003;11789;53.482;9.862;2022-07-21T02:25:42;32.00;29.00;18.75
23240;PMS7003;11789;53.482;9.862;2022-07-21T02:28:09;29.75;29.75;19.75
23240;PMS7003;11789;53.482;9.862;2022-07-21T02:30:34;31.00;28.00;20.25
23240;PMS7003;11789;53.482;9.862;2022-07-21T02:33:00;29.25;28.00;18.00
23240;PMS7003;11789;53.482;9.862;2022-07-21T02:35:26;30.75;29.75;20.50
23240;PMS7003;11789;53.482;9.862;2022-07-21T02:37:51;27.75;23.00;14.75
23240;PMS7003;11789;53.482;9.862;2022-07-21T02:40:17;33.75;31.75;21.25
23240;PMS7003;11789;53.482;9.862;2022-07-21T02:42:42;30.50;29.75;20.25
23240;PMS7003;11789;53.482;9.862;2022-07-21T02:45:08;26.75;26.00;18.75
23240;PMS7003;11789;53.482;9.862;2022-07-21T02:47:56;28.75;27.75;19.25
23240;PMS7003;11789;53.482;9.862;2022-07-21T02:50:31;32.00;29.50;19.25
23240;PMS7003;11789;53.482;9.862;2022-07-21T02:53:01;27.75;26.25;18.00
23240;PMS7003;11789;53.482;9.862;2022-07-21T02:55:31;20.75;20.25;12.00
23240;PMS7003;11789;53.482;9.862;2022-07-21T02:58:09;29.75;28.25;19.00
23240;PMS7003;11789;53.482;9.862;2022-07-21T03:00:41;26.75;25.50;16.75
23240;PMS7003;11789;53.482;9.862;2022-07-21T03:03:08;28.50;27.75;18.75
23240;PMS7003;11789;53.482;9.862;2022-07-21T03:05:35;29.00;26.25;18.50
23240;PMS7003;11789;53.482;9.862;2022-07-21T03:08:02;23.50;22.00;15.50
23240;PMS7003;11789;53.482;9.862;2022-07-21T03:10:29;25.50;20.00;16.25
23240;PMS7003;11789;53.482;9.862;2022-07-21T03:12:54;22.00;21.00;15.50
23240;PMS7003;11789;53.482;9.862;2022-07-21T03:15:20;26.50;26.50;17.25
23240;PMS7003;11789;53.482;9.862;2022-07-21T03:17:45;23.50;23.00;14.50
23240;PMS7003;11789;53.482;9.862;2022-07-21T03:20:11;28.75;23.75;17.25
23240;PMS7003;11789;53.482;9.862;2022-07-21T03:22:37;26.75;25.00;16.50
23240;PMS7003;11789;53.482;9.862;2022-07-21T03:25:02;22.50;19.25;14.75
23240;PMS7003;11789;53.482;9.862;2022-07-21T03:27:28;25.50;20.50;15.00
23240;PMS7003;11789;53.482;9.862;2022-07-21T03:29:54;25.50;24.00;16.25
23240;PMS7003;11789;53.482;9.862;2022-07-21T03:32:19;22.25;22.00;14.25
23240;PMS7003;11789;53.482;9.862;2022-07-21T03:34:45;20.25;18.00;14.00
23240;PMS7003;11789;53.482;9.862;2022-07-21T03:37:11;20.25;18.25;14.75
23240;PMS7003;11789;53.482;9.862;2022-07-21T03:39:37;20.50;20.50;14.75
23240;PMS7003;11789;53.482;9.862;2022-07-21T03:42:02;21.00;19.75;12.50
23240;PMS7003;11789;53.482;9.862;2022-07-21T03:44:28;24.75;18.25;14.00
23240;PMS7003;11789;53.482;9.862;2022-07-21T03:46:53;17.25;16.00;13.00
23240;PMS7003;11789;53.482;9.862;2022-07-21T03:49:19;20.00;18.50;14.75
23240;PMS7003;11789;53.482;9.862;2022-07-21T03:51:44;19.75;18.25;13.00
23240;PMS7003;11789;53.482;9.862;2022-07-21T03:54:10;19.00;16.50;12.25
23240;PMS7003;11789;53.482;9.862;2022-07-21T03:56:36;23.25;19.50;12.50
23240;PMS7003;11789;53.482;9.862;2022-07-21T03:59:02;21.50;18.50;13.25
23240;PMS7003;11789;53.482;9.862;2022-07-21T04:01:27;19.75;18.50;13.50
23240;PMS7003;11789;53.482;9.862;2022-07-21T04:03:52;19.00;18.75;13.00
23240;PMS7003;11789;53.482;9.862;2022-07-21T04:06:18;26.50;20.75;14.75
23240;PMS7003;11789;53.482;9.862;2022-07-21T04:08:43;14.25;14.00;8.50
23240;PMS7003;11789;53.482;9.862;2022-07-21T04:11:09;16.50;15.50;12.25
23240;PMS7003;11789;53.482;9.862;2022-07-21T04:13:34;20.75;18.00;14.25
23240;PMS7003;11789;53.482;9.862;2022-07-21T04:16:00;14.50;12.25;11.50
23240;PMS7003;11789;53.482;9.862;2022-07-21T04:18:25;18.25;16.25;11.75
23240;PMS7003;11789;53.482;9.862;2022-07-21T04:20:50;15.75;13.50;10.50
23240;PMS7003;11789;53.482;9.862;2022-07-21T04:23:16;15.50;15.50;11.25
23240;PMS7003;11789;53.482;9.862;2022-07-21T04:25:41;12.75;12.75;10.00
23240;PMS7003;11789;53.482;9.862;2022-07-21T04:28:07;16.25;14.50;11.25
23240;PMS7003;11789;53.482;9.862;2022-07-21T04:30:33;17.50;15.50;10.75
23240;PMS7003;11789;53.482;9.862;2022-07-21T04:32:58;16.50;14.75;12.00
23240;PMS7003;11789;53.482;9.862;2022-07-21T04:35:23;16.00;14.75;11.00
23240;PMS7003;11789;53.482;9.862;2022-07-21T04:37:49;20.25;16.50;11.25
23240;PMS7003;11789;53.482;9.862;2022-07-21T04:40:15;17.25;16.75;12.00
23240;PMS7003;11789;53.482;9.862;2022-07-21T04:42:41;19.00;18.50;12.75
23240;PMS7003;11789;53.482;9.862;2022-07-21T04:45:08;17.75;16.25;12.25
23240;PMS7003;11789;53.482;9.862;2022-07-21T04:47:56;14.75;14.75;11.25
23240;PMS7003;11789;53.482;9.862;2022-07-21T04:50:21;16.50;16.50;12.25
23240;PMS7003;11789;53.482;9.862;2022-07-21T04:52:48;19.00;18.50;12.25
23240;PMS7003;11789;53.482;9.862;2022-07-21T04:55:14;21.50;16.50;11.75
23240;PMS7003;11789;53.482;9.862;2022-07-21T04:57:42;21.25;18.75;13.75
23240;PMS7003;11789;53.482;9.862;2022-07-21T05:00:09;18.00;18.00;12.00
23240;PMS7003;11789;53.482;9.862;2022-07-21T05:02:37;17.50;16.50;12.25
23240;PMS7003;11789;53.482;9.862;2022-07-21T05:05:02;20.75;19.00;12.25
23240;PMS7003;11789;53.482;9.862;2022-07-21T05:07:28;18.75;17.00;12.00
23240;PMS7003;11789;53.482;9.862;2022-07-21T05:09:54;20.50;17.25;11.25
23240;PMS7003;11789;53.482;9.862;2022-07-21T05:12:19;16.00;15.00;12.25
23240;PMS7003;11789;53.482;9.862;2022-07-21T05:14:45;15.25;14.25;10.50
23240;PMS7003;11789;53.482;9.862;2022-07-21T05:17:10;19.25;15.50;11.25
23240;PMS7003;11789;53.482;9.862;2022-07-21T05:19:36;22.00;20.00;13.25
23240;PMS7003;11789;53.482;9.862;2022-07-21T05:22:01;20.25;18.50;12.50
23240;PMS7003;11789;53.482;9.862;2022-07-21T05:24:27;21.50;18.50;12.75
23240;PMS7003;11789;53.482;9.862;2022-07-21T05:26:52;16.25;16.00;12.25
23240;PMS7003;11789;53.482;9.862;2022-07-21T05:29:17;16.50;16.50;12.25
23240;PMS7003;11789;53.482;9.862;2022-07-21T05:31:43;19.25;19.25;13.25
23240;PMS7003;11789;53.482;9.862;2022-07-21T05:34:09;18.75;16.50;12.25
23240;PMS7003;11789;53.482;9.862;2022-07-21T05:36:34;20.25;17.75;13.00
23240;PMS7003;11789;53.482;9.862;2022-07-21T05:38:59;19.75;16.75;12.25
23240;PMS7003;11789;53.482;9.862;2022-07-21T05:41:25;17.75;17.75;13.25
23240;PMS7003;11789;53.482;9.862;2022-07-21T05:43:50;20.25;18.75;12.00
23240;PMS7003;11789;53.482;9.862;2022-07-21T05:46:16;18.50;15.50;12.25
23240;PMS7003;11789;53.482;9.862;2022-07-21T05:48:41;19.75;19.75;15.00
23240;PMS7003;11789;53.482;9.862;2022-07-21T05:51:06;18.50;16.25;12.75
23240;PMS7003;11789;53.482;9.862;2022-07-21T05:53:32;18.00;15.50;10.00
23240;PMS7003;11789;53.482;9.862;2022-07-21T05:55:57;19.00;15.50;13.25
23240;PMS7003;11789;53.482;9.862;2022-07-21T05:58:23;22.25;20.75;12.75
23240;PMS7003;11789;53.482;9.862;2022-07-21T06:00:52;23.75;21.25;13.50
23240;PMS7003;11789;53.482;9.862;2022-07-21T06:03:37;21.75;20.00;14.25
23240;PMS7003;11789;53.482;9.862;2022-07-21T06:06:23;20.75;19.50;13.75
23240;PMS7003;11789;53.482;9.862;2022-07-21T06:08:48;19.50;18.50;14.25
23240;PMS7003;11789;53.482;9.862;2022-07-21T06:11:15;18.50;17.00;12.75
23240;PMS7003;11789;53.482;9.862;2022-07-21T06:13:42;20.50;17.50;12.50
23240;PMS7003;11789;53.482;9.862;2022-07-21T06:16:08;19.25;19.25;13.25
23240;PMS7003;11789;53.482;9.862;2022-07-21T06:18:34;22.75;18.50;13.50
23240;PMS7003;11789;53.482;9.862;2022-07-21T06:20:59;18.25;16.75;11.75
23240;PMS7003;11789;53.482;9.862;2022-07-21T06:23:25;29.25;22.00;16.25
23240;PMS7003;11789;53.482;9.862;2022-07-21T06:25:52;25.75;20.75;15.25
23240;PMS7003;11789;53.482;9.862;2022-07-21T06:28:18;21.00;21.00;14.50
23240;PMS7003;11789;53.482;9.862;2022-07-21T06:30:44;22.75;21.00;15.50
23240;PMS7003;11789;53.482;9.862;2022-07-21T06:33:10;24.00;22.00;15.00
23240;PMS7003;11789;53.482;9.862;2022-07-21T06:35:35;26.50;21.00;15.50
23240;PMS7003;11789;53.482;9.862;2022-07-21T06:38:01;24.25;21.50;13.75
23240;PMS7003;11789;53.482;9.862;2022-07-21T06:40:27;26.00;22.50;16.00
23240;PMS7003;11789;53.482;9.862;2022-07-21T06:42:52;33.25;25.25;15.50
23240;PMS7003;11789;53.482;9.862;2022-07-21T06:45:18;21.75;19.75;15.25
23240;PMS7003;11789;53.482;9.862;2022-07-21T06:47:44;20.00;19.00;13.50
23240;PMS7003;11789;53.482;9.862;2022-07-21T06:50:10;25.00;20.75;14.25
23240;PMS7003;11789;53.482;9.862;2022-07-21T06:52:35;26.25;19.75;15.00
23240;PMS7003;11789;53.482;9.862;2022-07-21T06:55:02;24.25;21.75;15.25
23240;PMS7003;11789;53.482;9.862;2022-07-21T06:57:30;23.50;19.50;14.50
23240;PMS7003;11789;53.482;9.862;2022-07-21T06:59:56;21.00;21.00;14.50
23240;PMS7003;11789;53.482;9.862;2022-07-21T07:02:21;21.25;21.25;15.00
23240;PMS7003;11789;53.482;9.862;2022-07-21T07:04:47;24.25;21.00;14.00
23240;PMS7003;11789;53.482;9.862;2022-07-21T07:07:12;20.75;20.00;14.00
23240;PMS7003;11789;53.482;9.862;2022-07-21T07:09:37;26.25;21.00;16.00
23240;PMS7003;11789;53.482;9.862;2022-07-21T07:12:03;26.50;20.00;14.50
23240;PMS7003;11789;53.482;9.862;2022-07-21T07:14:30;23.25;20.50;14.25
23240;PMS7003;11789;53.482;9.862;2022-07-21T07:16:58;28.25;19.25;12.75
23240;PMS7003;11789;53.482;9.862;2022-07-21T07:19:24;28.25;24.50;15.00
23240;PMS7003;11789;53.482;9.862;2022-07-21T07:21:49;26.00;24.50;16.50
23240;PMS7003;11789;53.482;9.862;2022-07-21T07:24:15;27.50;24.00;15.50
23240;PMS7003;11789;53.482;9.862;2022-07-21T07:26:41;20.50;20.25;12.75
23240;PMS7003;11789;53.482;9.862;2022-07-21T07:29:06;28.50;23.00;16.25
23240;PMS7003;11789;53.482;9.862;2022-07-21T07:31:33;20.50;17.75;14.50
23240;PMS7003;11789;53.482;9.862;2022-07-21T07:33:59;23.50;23.50;15.50
23240;PMS7003;11789;53.482;9.862;2022-07-21T07:36:25;23.00;23.00;15.50
23240;PMS7003;11789;53.482;9.862;2022-07-21T07:38:52;24.25;24.00;16.25
23240;PMS7003;11789;53.482;9.862;2022-07-21T07:41:18;25.25;23.75;17.00
23240;PMS7003;11789;53.482;9.862;2022-07-21T07:43:45;27.50;26.00;17.75
23240;PMS7003;11789;53.482;9.862;2022-07-21T07:46:10;30.00;27.75;18.75
23240;PMS7003;11789;53.482;9.862;2022-07-21T07:48:38;32.25;29.75;20.25
23240;PMS7003;11789;53.482;9.862;2022-07-21T07:51:04;29.50;27.75;18.00
23240;PMS7003;11789;53.482;9.862;2022-07-21T07:53:29;27.00;26.75;18.25
23240;PMS7003;11789;53.482;9.862;2022-07-21T07:55:55;30.50;26.25;17.75
23240;PMS7003;11789;53.482;9.862;2022-07-21T07:58:20;28.25;28.25;18.75
23240;PMS7003;11789;53.482;9.862;2022-07-21T08:00:46;37.50;31.75;20.25
23240;PMS7003;11789;53.482;9.862;2022-07-21T08:03:11;32.50;28.75;19.25
23240;PMS7003;11789;53.482;9.862;2022-07-21T08:05:37;26.50;25.50;17.50
23240;PMS7003;11789;53.482;9.862;2022-07-21T08:08:02;27.50;27.50;19.50
23240;PMS7003;11789;53.482;9.862;2022-07-21T08:10:28;26.25;25.00;18.50
23240;PMS7003;11789;53.482;9.862;2022-07-21T08:12:54;32.25;30.50;20.75
23240;PMS7003;11789;53.482;9.862;2022-07-21T08:15:20;35.25;32.75;18.75
23240;PMS7003;11789;53.482;9.862;2022-07-21T08:17:45;25.00;25.00;18.75
23240;PMS7003;11789;53.482;9.862;2022-07-21T08:20:11;32.75;30.25;20.00
23240;PMS7003;11789;53.482;9.862;2022-07-21T08:22:36;33.75;32.00;20.50
23240;PMS7003;11789;53.482;9.862;2022-07-21T08:25:02;35.00;31.50;20.25
23240;PMS7003;11789;53.482;9.862;2022-07-21T08:27:28;30.75;29.50;19.75
23240;PMS7003;11789;53.482;9.862;2022-07-21T08:29:53;29.75;28.50;20.00
23240;PMS7003;11789;53.482;9.862;2022-07-21T08:32:19;30.75;28.50;19.75
23240;PMS7003;11789;53.482;9.862;2022-07-21T08:34:45;32.25;28.50;18.50
23240;PMS7003;11789;53.482;9.862;2022-07-21T08:37:11;29.75;29.75;18.75
23240;PMS7003;11789;53.482;9.862;2022-07-21T08:39:36;28.75;27.50;19.50
23240;PMS7003;11789;53.482;9.862;2022-07-21T08:42:02;32.50;30.00;19.25
23240;PMS7003;11789;53.482;9.862;2022-07-21T08:44:27;29.25;29.25;20.00
23240;PMS7003;11789;53.482;9.862;2022-07-21T08:46:53;35.25;29.00;19.25
23240;PMS7003;11789;53.482;9.862;2022-07-21T08:49:19;28.25;28.00;18.25
23240;PMS7003;11789;53.482;9.862;2022-07-21T08:51:47;28.50;28.50;20.00
23240;PMS7003;11789;53.482;9.862;2022-07-21T08:54:14;32.75;27.50;18.50
23240;PMS7003;11789;53.482;9.862;2022-07-21T08:56:39;30.25;26.25;17.50
23240;PMS7003;11789;53.482;9.862;2022-07-21T08:59:05;28.50;28.50;19.75
23240;PMS7003;11789;53.482;9.862;2022-07-21T09:01:31;29.50;29.50;19.00
23240;PMS7003;11789;53.482;9.862;2022-07-21T09:04:18;32.50;29.25;19.00
23240;PMS7003;11789;53.482;9.862;2022-07-21T09:06:52;28.75;27.00;18.75
23240;PMS7003;11789;53.482;9.862;2022-07-21T09:09:19;31.50;28.50;17.50
23240;PMS7003;11789;53.482;9.862;2022-07-21T09:11:50;30.50;30.50;19.50
23240;PMS7003;11789;53.482;9.862;2022-07-21T09:14:17;27.25;25.00;19.00
23240;PMS7003;11789;53.482;9.862;2022-07-21T09:16:50;25.25;25.25;19.75
23240;PMS7003;11789;53.482;9.862;2022-07-21T09:19:18;31.25;28.50;19.50
23240;PMS7003;11789;53.482;9.862;2022-07-21T09:21:49;30.25;27.50;19.50
23240;PMS7003;11789;53.482;9.862;2022-07-21T09:29:24;26.75;24.50;18.25
23240;PMS7003;11789;53.482;9.862;2022-07-21T09:31:50;25.75;25.75;19.00
23240;PMS7003;11789;53.482;9.862;2022-07-21T09:34:16;29.25;27.75;18.25
23240;PMS7003;11789;53.482;9.862;2022-07-21T09:36:55;21.50;21.50;16.50
23240;PMS7003;11789;53.482;9.862;2022-07-21T09:42:44;24.00;21.75;16.75
23240;PMS7003;11789;53.482;9.862;2022-07-21T09:45:09;24.75;24.25;17.50
23240;PMS7003;11789;53.482;9.862;2022-07-21T09:47:37;24.00;22.75;16.50
23240;PMS7003;11789;53.482;9.862;2022-07-21T09:50:05;25.50;24.25;16.75
23240;PMS7003;11789;53.482;9.862;2022-07-21T09:52:33;29.00;25.00;18.75
23240;PMS7003;11789;53.482;9.862;2022-07-21T09:55:01;24.75;24.75;18.25
23240;PMS7003;11789;53.482;9.862;2022-07-21T09:57:29;22.25;20.75;15.75
23240;PMS7003;11789;53.482;9.862;2022-07-21T09:59:55;24.75;24.00;17.75
23240;PMS7003;11789;53.482;9.862;2022-07-21T10:02:22;23.50;23.00;16.75
23240;PMS7003;11789;53.482;9.862;2022-07-21T10:04:53;28.50;25.50;17.75
23240;PMS7003;11789;53.482;9.862;2022-07-21T10:07:22;25.50;23.75;17.75
23240;PMS7003;11789;53.482;9.862;2022-07-21T10:09:48;25.75;23.25;18.00
23240;PMS7003;11789;53.482;9.862;2022-07-21T10:12:17;22.75;21.25;15.50
23240;PMS7003;11789;53.482;9.862;2022-07-21T10:14:43;21.00;21.00;16.25
23240;PMS7003;11789;53.482;9.862;2022-07-21T10:17:09;24.75;23.75;18.00
23240;PMS7003;11789;53.482;9.862;2022-07-21T10:22:40;19.50;19.50;16.75
23240;PMS7003;11789;53.482;9.862;2022-07-21T10:25:09;24.00;24.00;17.25
23240;PMS7003;11789;53.482;9.862;2022-07-21T10:27:35;27.75;26.25;18.50
23240;PMS7003;11789;53.482;9.862;2022-07-21T10:30:02;25.25;23.50;16.00
23240;PMS7003;11789;53.482;9.862;2022-07-21T10:32:33;24.50;24.50;18.50
23240;PMS7003;11789;53.482;9.862;2022-07-21T10:35:02;25.75;23.25;17.50
23240;PMS7003;11789;53.482;9.862;2022-07-21T10:37:48;24.50;24.00;17.25
23240;PMS7003;11789;53.482;9.862;2022-07-21T10:43:34;24.00;22.50;16.50
23240;PMS7003;11789;53.482;9.862;2022-07-21T10:45:35;23.00;23.00;19.50
23240;PMS7003;11789;53.482;9.862;2022-07-21T10:48:03;20.00;20.00;15.50
23240;PMS7003;11789;53.482;9.862;2022-07-21T10:52:56;20.25;20.25;16.50
23240;PMS7003;11789;53.482;9.862;2022-07-21T10:55:23;23.75;21.75;16.50
23240;PMS7003;11789;53.482;9.862;2022-07-21T11:00:50;21.75;21.75;16.50
23240;PMS7003;11789;53.482;9.862;2022-07-21T11:03:27;20.25;20.25;15.75
23240;PMS7003;11789;53.482;9.862;2022-07-21T11:08:38;21.50;21.50;15.25
23240;PMS7003;11789;53.482;9.862;2022-07-21T11:11:28;17.25;16.75;13.50
23240;PMS7003;11789;53.482;9.862;2022-07-21T11:14:14;18.25;18.25;13.50
23240;PMS7003;11789;53.482;9.862;2022-07-21T11:24:28;18.00;16.00;13.00
23240;PMS7003;11789;53.482;9.862;2022-07-21T11:26:55;14.00;14.00;11.00
23240;PMS7003;11789;53.482;9.862;2022-07-21T11:29:20;15.00;15.00;12.00
23240;PMS7003;11789;53.482;9.862;2022-07-21T11:31:47;14.00;14.00;11.00
23240;PMS7003;11789;53.482;9.862;2022-07-21T11:34:13;16.67;14.67;12.00
23240;PMS7003;11789;53.482;9.862;2022-07-21T11:36:38;17.00;15.33;12.00
23240;PMS7003;11789;53.482;9.862;2022-07-21T11:39:05;21.00;19.25;12.50
23240;PMS7003;11789;53.482;9.862;2022-07-21T11:41:34;16.00;16.00;12.00
23240;PMS7003;11789;53.482;9.862;2022-07-21T11:44:01;15.00;13.67;11.33
23240;PMS7003;11789;53.482;9.862;2022-07-21T11:46:28;15.33;15.33;12.00
23240;PMS7003;11789;53.482;9.862;2022-07-21T11:49:08;16.00;15.00;11.25
23240;PMS7003;11789;53.482;9.862;2022-07-21T11:51:34;18.00;16.33;14.00
23240;PMS7003;11789;53.482;9.862;2022-07-21T11:53:59;14.00;14.00;11.00
23240;PMS7003;11789;53.482;9.862;2022-07-21T11:56:25;19.50;19.50;14.00
23240;PMS7003;11789;53.482;9.862;2022-07-21T11:58:51;21.25;18.25;14.50
23240;PMS7003;11789;53.482;9.862;2022-07-21T12:01:44;21.67;18.67;14.00
23240;PMS7003;11789;53.482;9.862;2022-07-21T12:04:13;19.67;18.33;14.00
23240;PMS7003;11789;53.482;9.862;2022-07-21T12:06:38;17.00;17.00;13.00
23240;PMS7003;11789;53.482;9.862;2022-07-21T12:09:04;16.67;16.67;12.33
23240;PMS7003;11789;53.482;9.862;2022-07-21T12:11:34;19.33;19.33;15.33
23240;PMS7003;11789;53.482;9.862;2022-07-21T12:14:01;20.33;19.00;15.33
23240;PMS7003;11789;53.482;9.862;2022-07-21T12:16:27;20.67;19.00;15.00
23240;PMS7003;11789;53.482;9.862;2022-07-21T12:19:09;20.33;17.00;14.00
23240;PMS7003;11789;53.482;9.862;2022-07-21T12:21:45;19.00;18.00;13.00
23240;PMS7003;11789;53.482;9.862;2022-07-21T12:24:12;18.33;17.67;13.67
23240;PMS7003;11789;53.482;9.862;2022-07-21T12:26:38;17.00;17.00;13.67
23240;PMS7003;11789;53.482;9.862;2022-07-21T12:29:04;16.67;16.00;13.00
23240;PMS7003;11789;53.482;9.862;2022-07-21T12:31:31;19.25;17.50;14.00
23240;PMS7003;11789;53.482;9.862;2022-07-21T12:33:59;19.67;18.00;14.00
23240;PMS7003;11789;53.482;9.862;2022-07-21T12:36:40;17.75;17.25;13.75
23240;PMS7003;11789;53.482;9.862;2022-07-21T12:39:20;16.67;15.67;13.00
23240;PMS7003;11789;53.482;9.862;2022-07-21T12:42:06;22.00;20.50;14.50
23240;PMS7003;11789;53.482;9.862;2022-07-21T12:44:35;19.33;17.33;12.33
23240;PMS7003;11789;53.482;9.862;2022-07-21T12:49:53;16.67;16.67;14.00
23240;PMS7003;11789;53.482;9.862;2022-07-21T12:52:22;20.33;19.67;14.33
23240;PMS7003;11789;53.482;9.862;2022-07-21T12:54:49;18.00;18.00;13.00
23240;PMS7003;11789;53.482;9.862;2022-07-21T12:57:15;23.33;18.00;13.00
23240;PMS7003;11789;53.482;9.862;2022-07-21T12:59:40;19.00;17.67;14.33
23240;PMS7003;11789;53.482;9.862;2022-07-21T13:02:06;17.33;17.33;14.00
23240;PMS7003;11789;53.482;9.862;2022-07-21T13:04:31;16.00;13.67;11.33
23240;PMS7003;11789;53.482;9.862;2022-07-21T13:06:57;14.67;13.67;9.67
23240;PMS7003;11789;53.482;9.862;2022-07-21T13:09:23;12.67;12.67;10.00
23240;PMS7003;11789;53.482;9.862;2022-07-21T13:11:48;11.75;10.75;9.25
23240;PMS7003;11789;53.482;9.862;2022-07-21T13:14:14;10.33;10.00;7.67
23240;PMS7003;11789;53.482;9.862;2022-07-21T13:16:39;10.33;9.00;7.33
23240;PMS7003;11789;53.482;9.862;2022-07-21T13:19:04;9.33;9.33;7.00
23240;PMS7003;11789;53.482;9.862;2022-07-21T13:21:31;11.75;10.75;8.25
23240;PMS7003;11789;53.482;9.862;2022-07-21T13:23:56;13.00;10.33;9.00
23240;PMS7003;11789;53.482;9.862;2022-07-21T13:26:22;11.00;11.00;8.67
23240;PMS7003;11789;53.482;9.862;2022-07-21T13:28:47;9.67;8.00;7.00
23240;PMS7003;11789;53.482;9.862;2022-07-21T13:31:12;8.00;8.00;7.00
23240;PMS7003;11789;53.482;9.862;2022-07-21T13:33:39;10.00;10.00;8.00
23240;PMS7003;11789;53.482;9.862;2022-07-21T13:36:06;9.00;9.00;7.67
23240;PMS7003;11789;53.482;9.862;2022-07-21T13:38:32;7.75;7.75;6.75
23240;PMS7003;11789;53.482;9.862;2022-07-21T13:40:58;8.33;8.33;6.67
23240;PMS7003;11789;53.482;9.862;2022-07-21T13:43:23;7.00;7.00;6.00
23240;PMS7003;11789;53.482;9.862;2022-07-21T13:45:49;8.33;7.00;5.67
23240;PMS7003;11789;53.482;9.862;2022-07-21T13:48:14;5.00;5.00;5.00
23240;PMS7003;11789;53.482;9.862;2022-07-21T13:50:40;3.67;3.67;3.33
23240;PMS7003;11789;53.482;9.862;2022-07-21T13:53:05;5.67;5.67;5.00
23240;PMS7003;11789;53.482;9.862;2022-07-21T13:55:31;6.00;6.00;6.00
23240;PMS7003;11789;53.482;9.862;2022-07-21T13:57:56;6.00;6.00;5.00
23240;PMS7003;11789;53.482;9.862;2022-07-21T14:00:22;7.00;7.00;5.67
23240;PMS7003;11789;53.482;9.862;2022-07-21T14:02:47;7.00;7.00;6.00
23240;PMS7003;11789;53.482;9.862;2022-07-21T14:05:13;6.33;6.00;5.33
23240;PMS7003;11789;53.482;9.862;2022-07-21T14:07:39;6.67;6.67;6.00
23240;PMS7003;11789;53.482;9.862;2022-07-21T14:10:05;7.00;6.00;5.00
23240;PMS7003;11789;53.482;9.862;2022-07-21T14:12:31;7.00;7.00;5.75
23240;PMS7003;11789;53.482;9.862;2022-07-21T14:14:57;8.33;8.00;6.00
23240;PMS7003;11789;53.482;9.862;2022-07-21T14:17:22;8.33;7.00;6.00
23240;PMS7003;11789;53.482;9.862;2022-07-21T14:19:48;7.67;7.00;6.33
23240;PMS7003;11789;53.482;9.862;2022-07-21T14:22:16;8.00;8.00;6.33
23240;PMS7003;11789;53.482;9.862;2022-07-21T14:24:43;7.75;7.75;6.00